SBPK/PET METAR and TAF weather

Enter ICAO airport designator
Station Type Date Time Source
SBPK METAR 2019/12/12 17:00 UTC NOAA

SBPK 121700Z 27015KT CAVOK 35/16 Q1004


Station Type Date Time Source
SBPK Decoded METAR 2019/12/12 17:00 UTC NOAA

Pelotas, Brazil (SBPK) 31-52S 052-21W 13M
Dec 12, 2019 - 12:00 PM EST / 2019.12.12 1700 UTC
Wind: from the W (270 degrees) at 17 MPH (15 KT):0
Visibility: greater than 7 mile(s):0
Temperature: 95 F (35 C)
Heat index: 95.2 F (35.1 C):1
Dew Point: 60 F (16 C)
Relative Humidity: 32%
Pressure (altimeter): 29.65 in. Hg (1004 hPa)
ob: SBPK 121700Z 27015KT CAVOK 35/16 Q1004
cycle: 17

Station Type Date Time Source
SBPK TAF 2019/12/12 18:19 UTC NOAA

TAF SBPK 121500Z 1218/1318 24013KT 9999 SCT030 TX35/1218Z TN14/1308Z
BECMG 1222/1224 18007KT CAVOK
BECMG 1314/1316 12012KT SCT030
RMK PCX

Example: see airport list